sensor_id;sensor_type;location;lat;lon;timestamp;pressure;altitude;pressure_sealevel;temperature;humidity
68807;BME280;55800;54.272;18.558;2023-08-08T00:01:00;99454.19;;;14.49;66.65
68807;BME280;55800;54.272;18.558;2023-08-08T00:03:36;99454.31;;;14.47;66.56
68807;BME280;55800;54.272;18.558;2023-08-08T00:06:07;99460.75;;;14.45;66.69
68807;BME280;55800;54.272;18.558;2023-08-08T00:08:36;99461.63;;;14.45;66.37
68807;BME280;55800;54.272;18.558;2023-08-08T00:11:06;99463.31;;;14.46;65.79
68807;BME280;55800;54.272;18.558;2023-08-08T00:13:35;99462.38;;;14.47;65.95
68807;BME280;55800;54.272;18.558;2023-08-08T00:16:05;99463.09;;;14.49;65.52
68807;BME280;55800;54.272;18.558;2023-08-08T00:18:35;99458.59;;;14.50;65.95
68807;BME280;55800;54.272;18.558;2023-08-08T00:21:05;99458.59;;;14.50;65.50
68807;BME280;55800;54.272;18.558;2023-08-08T00:23:35;99457.50;;;14.52;65.04
68807;BME280;55800;54.272;18.558;2023-08-08T00:26:05;99471.91;;;14.51;64.84
68807;BME280;55800;54.272;18.558;2023-08-08T00:28:34;99483.75;;;14.49;64.77
68807;BME280;55800;54.272;18.558;2023-08-08T00:31:04;99467.63;;;14.49;64.57
68807;BME280;55800;54.272;18.558;2023-08-08T00:33:33;99475.59;;;14.50;64.50
68807;BME280;55800;54.272;18.558;2023-08-08T00:36:03;99479.97;;;14.51;64.38
68807;BME280;55800;54.272;18.558;2023-08-08T00:38:32;99480.09;;;14.50;64.27
68807;BME280;55800;54.272;18.558;2023-08-08T00:41:03;99474.72;;;14.50;64.14
68807;BME280;55800;54.272;18.558;2023-08-08T00:43:33;99483.75;;;14.49;64.20
68807;BME280;55800;54.272;18.558;2023-08-08T00:46:02;99480.84;;;14.52;63.42
68807;BME280;55800;54.272;18.558;2023-08-08T00:48:32;99474.47;;;14.53;63.72
68807;BME280;55800;54.272;18.558;2023-08-08T00:51:02;99474.72;;;14.50;63.57
68807;BME280;55800;54.272;18.558;2023-08-08T00:53:33;99471.19;;;14.49;63.46
68807;BME280;55800;54.272;18.558;2023-08-08T00:56:04;99464.94;;;14.49;63.17
68807;BME280;55800;54.272;18.558;2023-08-08T00:58:34;99475.69;;;14.49;63.22
68807;BME280;55800;54.272;18.558;2023-08-08T01:01:04;99466.88;;;14.47;63.01
68807;BME280;55800;54.272;18.558;2023-08-08T01:03:33;99462.25;;;14.49;63.16
68807;BME280;55800;54.272;18.558;2023-08-08T01:06:08;99474.09;;;14.46;63.36
68807;BME280;55800;54.272;18.558;2023-08-08T01:08:45;99467.88;;;14.46;63.49
68807;BME280;55800;54.272;18.558;2023-08-08T01:11:18;99472.50;;;14.44;62.93
68807;BME280;55800;54.272;18.558;2023-08-08T01:13:47;99476.16;;;14.43;62.78
68807;BME280;55800;54.272;18.558;2023-08-08T01:16:18;99468.09;;;14.43;63.02
68807;BME280;55800;54.272;18.558;2023-08-08T01:18:49;99475.41;;;14.41;62.94
68807;BME280;55800;54.272;18.558;2023-08-08T01:21:19;99467.34;;;14.41;62.76
68807;BME280;55800;54.272;18.558;2023-08-08T01:23:52;99471.97;;;14.39;62.96
68807;BME280;55800;54.272;18.558;2023-08-08T01:26:24;99469.28;;;14.39;63.24
68807;BME280;55800;54.272;18.558;2023-08-08T01:28:54;99470.28;;;14.38;62.87
68807;BME280;55800;54.272;18.558;2023-08-08T01:31:24;99473.72;;;14.40;63.00
68807;BME280;55800;54.272;18.558;2023-08-08T01:33:53;99471.13;;;14.38;62.91
68807;BME280;55800;54.272;18.558;2023-08-08T01:36:29;99465.66;;;14.40;62.58
68807;BME280;55800;54.272;18.558;2023-08-08T01:39:01;99470.03;;;14.41;62.46
68807;BME280;55800;54.272;18.558;2023-08-08T01:41:38;99468.56;;;14.37;62.41
68807;BME280;55800;54.272;18.558;2023-08-08T01:44:09;99464.91;;;14.38;62.37
68807;BME280;55800;54.272;18.558;2023-08-08T01:46:39;99464.03;;;14.37;62.49
68807;BME280;55800;54.272;18.558;2023-08-08T01:49:09;99463.41;;;14.34;62.31
68807;BME280;55800;54.272;18.558;2023-08-08T01:51:38;99458.88;;;14.34;62.22
68807;BME280;55800;54.272;18.558;2023-08-08T01:54:08;99459.97;;;14.32;62.26
68807;BME280;55800;54.272;18.558;2023-08-08T01:56:40;99465.78;;;14.26;62.60
68807;BME280;55800;54.272;18.558;2023-08-08T01:59:09;99463.94;;;14.26;62.69
68807;BME280;55800;54.272;18.558;2023-08-08T02:01:41;99465.78;;;14.26;62.56
68807;BME280;55800;54.272;18.558;2023-08-08T02:04:10;99458.72;;;14.25;62.18
68807;BME280;55800;54.272;18.558;2023-08-08T02:06:40;99451.59;;;14.24;62.57
68807;BME280;55800;54.272;18.558;2023-08-08T02:09:09;99463.56;;;14.20;62.67
68807;BME280;55800;54.272;18.558;2023-08-08T02:11:40;99464.53;;;14.19;62.75
68807;BME280;55800;54.272;18.558;2023-08-08T02:14:09;99464.53;;;14.19;62.94
68807;BME280;55800;54.272;18.558;2023-08-08T02:16:38;99466.47;;;14.17;62.85
68807;BME280;55800;54.272;18.558;2023-08-08T02:19:11;99463.28;;;14.12;62.92
68807;BME280;55800;54.272;18.558;2023-08-08T02:21:42;99468.66;;;14.12;63.14
68807;BME280;55800;54.272;18.558;2023-08-08T02:24:11;99472.09;;;14.14;63.17
68807;BME280;55800;54.272;18.558;2023-08-08T02:26:42;99470.25;;;14.14;63.44
68807;BME280;55800;54.272;18.558;2023-08-08T02:29:12;99466.69;;;14.14;63.35
68807;BME280;55800;54.272;18.558;2023-08-08T03:27:34;99512.94;;;14.19;65.68
68807;BME280;55800;54.272;18.558;2023-08-08T03:30:06;99517.09;;;14.23;65.68
68807;BME280;55800;54.272;18.558;2023-08-08T03:32:41;99518.47;;;14.28;65.59
68807;BME280;55800;54.272;18.558;2023-08-08T03:35:13;99520.41;;;14.26;65.40
68807;BME280;55800;54.272;18.558;2023-08-08T03:37:44;99520.41;;;14.26;65.48
68807;BME280;55800;54.272;18.558;2023-08-08T03:40:14;99522.16;;;14.27;65.68
68807;BME280;55800;54.272;18.558;2023-08-08T03:42:45;99522.78;;;14.31;65.52
68807;BME280;55800;54.272;18.558;2023-08-08T03:45:15;99530.75;;;14.32;65.43
68807;BME280;55800;54.272;18.558;2023-08-08T03:47:46;99536.00;;;14.34;65.65
68807;BME280;55800;54.272;18.558;2023-08-08T03:50:15;99532.34;;;14.35;65.61
68807;BME280;55800;54.272;18.558;2023-08-08T03:52:45;99541.78;;;14.40;65.43
68807;BME280;55800;54.272;18.558;2023-08-08T03:55:15;99541.69;;;14.42;65.35
68807;BME280;55800;54.272;18.558;2023-08-08T03:57:46;99546.81;;;14.45;65.45
68807;BME280;55800;54.272;18.558;2023-08-08T04:00:16;99546.81;;;14.45;65.29
68807;BME280;55800;54.272;18.558;2023-08-08T04:02:45;99545.84;;;14.46;65.30
68807;BME280;55800;54.272;18.558;2023-08-08T04:05:15;99553.81;;;14.47;65.23
68807;BME280;55800;54.272;18.558;2023-08-08T04:07:44;99556.28;;;14.50;65.25
68807;BME280;55800;54.272;18.558;2023-08-08T04:10:14;99570.69;;;14.49;65.50
68807;BME280;55800;54.272;18.558;2023-08-08T04:12:44;99573.25;;;14.51;65.14
68807;BME280;55800;54.272;18.558;2023-08-08T04:15:15;99571.53;;;14.50;65.28
68807;BME280;55800;54.272;18.558;2023-08-08T04:17:44;99578.53;;;14.52;65.17
68807;BME280;55800;54.272;18.558;2023-08-08T04:20:14;99586.69;;;14.51;65.28
68807;BME280;55800;54.272;18.558;2023-08-08T04:22:43;99587.44;;;14.53;65.46
68807;BME280;55800;54.272;18.558;2023-08-08T04:25:13;99580.56;;;14.49;65.39
68807;BME280;55800;54.272;18.558;2023-08-08T04:27:42;99596.50;;;14.52;65.36
68807;BME280;55800;54.272;18.558;2023-08-08T04:30:13;99602.09;;;14.49;65.55
68807;BME280;55800;54.272;18.558;2023-08-08T04:32:43;99601.88;;;14.52;65.17
68807;BME280;55800;54.272;18.558;2023-08-08T04:35:13;99607.00;;;14.55;65.17
68807;BME280;55800;54.272;18.558;2023-08-08T04:37:42;99605.44;;;14.52;65.32
68807;BME280;55800;54.272;18.558;2023-08-08T04:40:12;99612.38;;;14.55;65.36
68807;BME280;55800;54.272;18.558;2023-08-08T04:42:42;99614.75;;;14.59;65.31
68807;BME280;55800;54.272;18.558;2023-08-08T04:45:12;99616.59;;;14.59;65.08
68807;BME280;55800;54.272;18.558;2023-08-08T04:47:42;99621.00;;;14.60;64.88
68807;BME280;55800;54.272;18.558;2023-08-08T04:50:12;99629.06;;;14.60;65.04
68807;BME280;55800;54.272;18.558;2023-08-08T04:52:41;99635.44;;;14.59;65.15
68807;BME280;55800;54.272;18.558;2023-08-08T04:55:10;99625.03;;;14.65;64.91
68807;BME280;55800;54.272;18.558;2023-08-08T04:57:40;99631.41;;;14.64;64.91
68807;BME280;55800;54.272;18.558;2023-08-08T05:00:09;99628.38;;;14.69;64.72
68807;BME280;55800;54.272;18.558;2023-08-08T05:02:40;99632.78;;;14.70;64.81
68807;BME280;55800;54.272;18.558;2023-08-08T05:05:10;99627.91;;;14.75;64.77
68807;BME280;55800;54.272;18.558;2023-08-08T05:07:39;99627.72;;;14.78;64.83
68807;BME280;55800;54.272;18.558;2023-08-08T05:10:09;99628.44;;;14.80;64.52
68807;BME280;55800;54.272;18.558;2023-08-08T05:12:38;99630.16;;;14.81;63.97
68807;BME280;55800;54.272;18.558;2023-08-08T05:15:08;99642.41;;;14.85;64.10
68807;BME280;55800;54.272;18.558;2023-08-08T05:17:39;99639.22;;;14.80;63.71
68807;BME280;55800;54.272;18.558;2023-08-08T05:20:09;99639.84;;;14.83;63.85
68807;BME280;55800;54.272;18.558;2023-08-08T05:22:42;99642.19;;;14.88;63.79
68807;BME280;55800;54.272;18.558;2023-08-08T05:25:12;99645.28;;;14.95;63.83
68807;BME280;55800;54.272;18.558;2023-08-08T05:27:41;99648.38;;;15.01;63.75
68807;BME280;55800;54.272;18.558;2023-08-08T05:30:12;99653.50;;;15.04;63.38
68807;BME280;55800;54.272;18.558;2023-08-08T05:32:43;99644.69;;;15.02;63.67
68807;BME280;55800;54.272;18.558;2023-08-08T05:35:13;99655.97;;;15.07;63.66
68807;BME280;55800;54.272;18.558;2023-08-08T05:37:42;99652.59;;;15.16;63.67
68807;BME280;55800;54.272;18.558;2023-08-08T05:40:12;99670.25;;;15.20;63.29
68807;BME280;55800;54.272;18.558;2023-08-08T05:42:40;99675.63;;;15.31;63.32
68807;BME280;55800;54.272;18.558;2023-08-08T05:45:10;99679.06;;;15.33;62.97
68807;BME280;55800;54.272;18.558;2023-08-08T05:47:39;99669.28;;;15.32;62.86
68807;BME280;55800;54.272;18.558;2023-08-08T05:50:10;99669.81;;;15.37;63.23
68807;BME280;55800;54.272;18.558;2023-08-08T05:52:39;99685.59;;;15.42;62.47
68807;BME280;55800;54.272;18.558;2023-08-08T05:55:09;99687.38;;;15.43;62.43
68807;BME280;55800;54.272;18.558;2023-08-08T05:57:38;99691.66;;;15.45;62.02
68807;BME280;55800;54.272;18.558;2023-08-08T06:00:07;99700.13;;;15.52;62.46
68807;BME280;55800;54.272;18.558;2023-08-08T06:02:42;99703.56;;;15.54;62.34
68807;BME280;55800;54.272;18.558;2023-08-08T06:05:15;99702.56;;;15.55;62.13
68807;BME280;55800;54.272;18.558;2023-08-08T06:07:45;99712.41;;;15.56;62.04
68807;BME280;55800;54.272;18.558;2023-08-08T06:10:15;99703.22;;;15.58;61.60
68807;BME280;55800;54.272;18.558;2023-08-08T06:12:44;99699.78;;;15.56;60.51
68807;BME280;55800;54.272;18.558;2023-08-08T06:15:13;99713.13;;;15.58;61.27
68807;BME280;55800;54.272;18.558;2023-08-08T06:17:43;99706.75;;;15.59;60.97
68807;BME280;55800;54.272;18.558;2023-08-08T06:20:14;99694.88;;;15.61;60.97
68807;BME280;55800;54.272;18.558;2023-08-08T06:22:43;99691.31;;;15.61;61.07
68807;BME280;55800;54.272;18.558;2023-08-08T06:25:13;99704.91;;;15.59;60.55
68807;BME280;55800;54.272;18.558;2023-08-08T06:27:42;99702.97;;;15.61;60.34
68807;BME280;55800;54.272;18.558;2023-08-08T06:30:14;99702.75;;;15.65;60.27
68807;BME280;55800;54.272;18.558;2023-08-08T06:32:43;99698.34;;;15.75;60.51
68807;BME280;55800;54.272;18.558;2023-08-08T06:35:14;99710.38;;;15.82;60.32
68807;BME280;55800;54.272;18.558;2023-08-08T06:37:44;99723.25;;;15.89;60.07
68807;BME280;55800;54.272;18.558;2023-08-08T06:40:14;99725.38;;;15.97;59.84
68807;BME280;55800;54.272;18.558;2023-08-08T06:42:43;99711.63;;;16.00;59.90
68807;BME280;55800;54.272;18.558;2023-08-08T06:45:12;99744.59;;;16.03;59.16
68807;BME280;55800;54.272;18.558;2023-08-08T06:47:41;99729.78;;;16.09;59.65
68807;BME280;55800;54.272;18.558;2023-08-08T06:50:11;99732.00;;;16.15;59.51
68807;BME280;55800;54.272;18.558;2023-08-08T06:52:42;99727.94;;;16.20;58.79
68807;BME280;55800;54.272;18.558;2023-08-08T06:55:12;99728.59;;;16.24;58.36
68807;BME280;55800;54.272;18.558;2023-08-08T06:57:41;99732.63;;;16.29;58.74
68807;BME280;55800;54.272;18.558;2023-08-08T07:00:11;99726.88;;;16.34;58.79
68807;BME280;55800;54.272;18.558;2023-08-08T07:02:41;99740.72;;;16.40;59.29
68807;BME280;55800;54.272;18.558;2023-08-08T07:05:11;99730.31;;;16.47;58.95
68807;BME280;55800;54.272;18.558;2023-08-08T07:07:41;99723.22;;;16.57;58.69
68807;BME280;55800;54.272;18.558;2023-08-08T07:10:11;99748.38;;;16.58;58.65
68807;BME280;55800;54.272;18.558;2023-08-08T07:12:40;99742.13;;;16.57;58.64
68807;BME280;55800;54.272;18.558;2023-08-08T07:15:10;99754.16;;;16.64;58.55
68807;BME280;55800;54.272;18.558;2023-08-08T07:17:41;99759.78;;;16.72;57.86
68807;BME280;55800;54.272;18.558;2023-08-08T07:20:11;99765.66;;;16.77;58.01
68807;BME280;55800;54.272;18.558;2023-08-08T07:22:44;99762.56;;;16.82;57.86
68807;BME280;55800;54.272;18.558;2023-08-08T07:25:13;99772.91;;;16.88;58.27
68807;BME280;55800;54.272;18.558;2023-08-08T07:27:42;99752.13;;;16.88;56.77
68807;BME280;55800;54.272;18.558;2023-08-08T07:30:12;99768.97;;;16.92;56.84
68807;BME280;55800;54.272;18.558;2023-08-08T07:32:42;99769.06;;;17.01;57.94
68807;BME280;55800;54.272;18.558;2023-08-08T07:35:11;99786.13;;;17.02;57.41
68807;BME280;55800;54.272;18.558;2023-08-08T07:37:42;99773.00;;;17.08;58.04
68807;BME280;55800;54.272;18.558;2023-08-08T07:40:16;99784.66;;;17.09;57.12
68807;BME280;55800;54.272;18.558;2023-08-08T07:42:46;99788.56;;;17.16;57.82
68807;BME280;55800;54.272;18.558;2023-08-08T07:45:16;99783.66;;;17.10;57.20
68807;BME280;55800;54.272;18.558;2023-08-08T07:47:46;99805.25;;;17.10;57.33
68807;BME280;55800;54.272;18.558;2023-08-08T07:50:16;99803.19;;;17.02;56.73
68807;BME280;55800;54.272;18.558;2023-08-08T07:52:47;99788.47;;;17.06;56.86
68807;BME280;55800;54.272;18.558;2023-08-08T07:55:17;99800.59;;;17.01;56.43
68807;BME280;55800;54.272;18.558;2023-08-08T07:57:46;99796.34;;;16.98;56.58
68807;BME280;55800;54.272;18.558;2023-08-08T08:00:17;99793.59;;;17.09;57.83
68807;BME280;55800;54.272;18.558;2023-08-08T08:02:47;99798.53;;;17.15;57.33
68807;BME280;55800;54.272;18.558;2023-08-08T08:05:16;99797.75;;;17.13;56.27
68807;BME280;55800;54.272;18.558;2023-08-08T08:07:47;99822.69;;;17.17;56.87
68807;BME280;55800;54.272;18.558;2023-08-08T08:10:17;99811.53;;;17.22;55.91
68807;BME280;55800;54.272;18.558;2023-08-08T08:12:47;99807.84;;;17.11;55.08
68807;BME280;55800;54.272;18.558;2023-08-08T08:15:16;99815.56;;;17.16;55.68
68807;BME280;55800;54.272;18.558;2023-08-08T08:17:45;99810.16;;;17.16;55.10
68807;BME280;55800;54.272;18.558;2023-08-08T08:20:15;99821.59;;;17.20;55.25
68807;BME280;55800;54.272;18.558;2023-08-08T08:22:44;99828.69;;;17.21;55.09
68807;BME280;55800;54.272;18.558;2023-08-08T08:25:15;99828.97;;;17.17;55.04
68807;BME280;55800;54.272;18.558;2023-08-08T08:27:44;99835.19;;;17.18;55.81
68807;BME280;55800;54.272;18.558;2023-08-08T08:30:14;99830.44;;;17.22;54.75
68807;BME280;55800;54.272;18.558;2023-08-08T08:32:44;99835.47;;;17.15;54.05
68807;BME280;55800;54.272;18.558;2023-08-08T08:35:14;99835.94;;;17.20;54.23
68807;BME280;55800;54.272;18.558;2023-08-08T08:37:44;99835.06;;;17.31;55.54
68807;BME280;55800;54.272;18.558;2023-08-08T08:40:15;99838.03;;;17.39;54.14
68807;BME280;55800;54.272;18.558;2023-08-08T08:42:45;99840.44;;;17.42;53.59
68807;BME280;55800;54.272;18.558;2023-08-08T08:45:19;99837.75;;;17.42;53.93
68807;BME280;55800;54.272;18.558;2023-08-08T08:47:50;99846.00;;;17.51;53.68
68807;BME280;55800;54.272;18.558;2023-08-08T08:50:27;99847.91;;;17.60;53.29
68807;BME280;55800;54.272;18.558;2023-08-08T08:52:57;99850.00;;;17.68;53.68
68807;BME280;55800;54.272;18.558;2023-08-08T08:55:31;99842.50;;;17.71;53.31
68807;BME280;55800;54.272;18.558;2023-08-08T08:58:01;99851.94;;;17.77;53.77
68807;BME280;55800;54.272;18.558;2023-08-08T09:00:31;99871.47;;;17.80;52.69
68807;BME280;55800;54.272;18.558;2023-08-08T09:03:02;99868.63;;;17.82;52.71
68807;BME280;55800;54.272;18.558;2023-08-08T09:05:34;99860.88;;;17.88;52.73
68807;BME280;55800;54.272;18.558;2023-08-08T09:08:04;99852.84;;;17.98;52.36
68807;BME280;55800;54.272;18.558;2023-08-08T09:10:35;99865.13;;;18.02;52.95
68807;BME280;55800;54.272;18.558;2023-08-08T09:13:04;99872.34;;;18.13;52.37
68807;BME280;55800;54.272;18.558;2023-08-08T09:15:35;99870.38;;;18.15;51.92
68807;BME280;55800;54.272;18.558;2023-08-08T09:18:04;99875.25;;;18.21;51.43
68807;BME280;55800;54.272;18.558;2023-08-08T09:20:34;99875.72;;;18.26;51.81
68807;BME280;55800;54.272;18.558;2023-08-08T09:23:03;99877.63;;;18.35;51.51
68807;BME280;55800;54.272;18.558;2023-08-08T09:25:34;99877.97;;;18.41;51.67
68807;BME280;55800;54.272;18.558;2023-08-08T09:28:05;99872.91;;;18.48;52.35
68807;BME280;55800;54.272;18.558;2023-08-08T09:30:35;99880.09;;;18.58;51.70
68807;BME280;55800;54.272;18.558;2023-08-08T09:33:05;99875.69;;;18.57;51.07
68807;BME280;55800;54.272;18.558;2023-08-08T09:35:38;99883.81;;;18.57;50.45
68807;BME280;55800;54.272;18.558;2023-08-08T09:38:08;99889.88;;;18.50;49.32
68807;BME280;55800;54.272;18.558;2023-08-08T09:40:39;99885.81;;;18.55;50.42
68807;BME280;55800;54.272;18.558;2023-08-08T09:43:09;99897.34;;;18.57;49.77
68807;BME280;55800;54.272;18.558;2023-08-08T09:45:39;99891.66;;;18.60;49.97
68807;BME280;55800;54.272;18.558;2023-08-08T09:48:10;99903.84;;;18.66;50.28
68807;BME280;55800;54.272;18.558;2023-08-08T09:50:40;99895.28;;;18.70;50.48
68807;BME280;55800;54.272;18.558;2023-08-08T09:53:10;99915.25;;;18.69;48.90
68807;BME280;55800;54.272;18.558;2023-08-08T09:55:42;99926.84;;;18.60;49.70
68807;BME280;55800;54.272;18.558;2023-08-08T09:58:13;99916.03;;;18.60;49.38
68807;BME280;55800;54.272;18.558;2023-08-08T10:00:43;99923.28;;;18.60;49.11
68807;BME280;55800;54.272;18.558;2023-08-08T10:03:13;99909.56;;;18.52;48.49
68807;BME280;55800;54.272;18.558;2023-08-08T10:05:42;99909.16;;;18.56;49.64
68807;BME280;55800;54.272;18.558;2023-08-08T10:08:12;99906.84;;;18.52;47.48
68807;BME280;55800;54.272;18.558;2023-08-08T10:10:47;99910.41;;;18.52;49.37
68807;BME280;55800;54.272;18.558;2023-08-08T10:13:20;99915.78;;;18.63;50.31
68807;BME280;55800;54.272;18.558;2023-08-08T10:15:50;99926.59;;;18.63;50.38
68807;BME280;55800;54.272;18.558;2023-08-08T10:18:22;99925.75;;;18.63;49.25
68807;BME280;55800;54.272;18.558;2023-08-08T10:20:52;99918.78;;;18.49;47.92
68807;BME280;55800;54.272;18.558;2023-08-08T10:23:22;99927.38;;;18.54;49.57
68807;BME280;55800;54.272;18.558;2023-08-08T10:25:53;99929.31;;;18.63;50.06
68807;BME280;55800;54.272;18.558;2023-08-08T10:28:26;99915.81;;;18.73;49.87
68807;BME280;55800;54.272;18.558;2023-08-08T10:30:57;99920.47;;;18.82;49.39
68807;BME280;55800;54.272;18.558;2023-08-08T10:33:33;99924.63;;;18.86;48.39
68807;BME280;55800;54.272;18.558;2023-08-08T10:36:08;99923.03;;;18.84;48.88
68807;BME280;55800;54.272;18.558;2023-08-08T10:38:41;99932.75;;;18.86;47.73
68807;BME280;55800;54.272;18.558;2023-08-08T10:41:14;99932.94;;;18.94;47.61
68807;BME280;55800;54.272;18.558;2023-08-08T10:43:49;99915.28;;;19.00;47.37
68807;BME280;55800;54.272;18.558;2023-08-08T10:46:24;99917.72;;;19.03;47.02
68807;BME280;55800;54.272;18.558;2023-08-08T10:48:54;99917.91;;;19.11;48.22
68807;BME280;55800;54.272;18.558;2023-08-08T10:51:33;99916.38;;;19.18;47.21
68807;BME280;55800;54.272;18.558;2023-08-08T10:54:05;99923.38;;;19.20;46.20
68807;BME280;55800;54.272;18.558;2023-08-08T10:56:37;99920.28;;;19.25;46.87
68807;BME280;55800;54.272;18.558;2023-08-08T10:59:14;99914.78;;;19.36;47.47
68807;BME280;55800;54.272;18.558;2023-08-08T11:01:49;99925.09;;;19.42;47.14
68807;BME280;55800;54.272;18.558;2023-08-08T11:04:20;99935.47;;;19.37;46.14
68807;BME280;55800;54.272;18.558;2023-08-08T11:06:50;99941.91;;;19.36;45.67
68807;BME280;55800;54.272;18.558;2023-08-08T11:09:22;99952.97;;;19.33;45.83
68807;BME280;55800;54.272;18.558;2023-08-08T11:11:55;99956.94;;;19.29;45.41
68807;BME280;55800;54.272;18.558;2023-08-08T11:14:25;99985.47;;;19.23;45.73
68807;BME280;55800;54.272;18.558;2023-08-08T11:16:55;100006.34;;;19.12;48.54
68807;BME280;55800;54.272;18.558;2023-08-08T11:19:24;100018.31;;;18.89;50.66
68807;BME280;55800;54.272;18.558;2023-08-08T11:21:54;100025.88;;;18.74;52.32
68807;BME280;55800;54.272;18.558;2023-08-08T11:24:23;100022.09;;;18.65;52.69
68807;BME280;55800;54.272;18.558;2023-08-08T11:27:00;100017.22;;;18.59;52.74
68807;BME280;55800;54.272;18.558;2023-08-08T11:29:30;100017.38;;;18.47;52.96
68807;BME280;55800;54.272;18.558;2023-08-08T11:32:00;100016.66;;;18.34;53.42
68807;BME280;55800;54.272;18.558;2023-08-08T11:34:32;100015.53;;;18.36;53.26
68807;BME280;55800;54.272;18.558;2023-08-08T11:37:02;100008.00;;;18.40;53.63
68807;BME280;55800;54.272;18.558;2023-08-08T11:39:31;99995.34;;;18.40;53.58
68807;BME280;55800;54.272;18.558;2023-08-08T11:42:03;100002.97;;;18.46;53.70
68807;BME280;55800;54.272;18.558;2023-08-08T11:44:33;100002.59;;;18.51;53.63
68807;BME280;55800;54.272;18.558;2023-08-08T11:47:03;100002.31;;;18.54;53.90
68807;BME280;55800;54.272;18.558;2023-08-08T11:49:40;100002.94;;;18.57;53.59
68807;BME280;55800;54.272;18.558;2023-08-08T11:52:12;100001.16;;;18.67;54.22
68807;BME280;55800;54.272;18.558;2023-08-08T11:54:41;100001.38;;;18.76;53.98
68807;BME280;55800;54.272;18.558;2023-08-08T11:57:12;100004.56;;;18.81;53.70
68807;BME280;55800;54.272;18.558;2023-08-08T11:59:42;100008.00;;;18.83;53.29
68807;BME280;55800;54.272;18.558;2023-08-08T12:02:12;100004.03;;;18.87;53.11
68807;BME280;55800;54.272;18.558;2023-08-08T12:04:44;100015.44;;;18.90;52.90
68807;BME280;55800;54.272;18.558;2023-08-08T12:07:14;100005.47;;;18.91;52.46
68807;BME280;55800;54.272;18.558;2023-08-08T12:09:47;100009.25;;;18.99;52.58
68807;BME280;55800;54.272;18.558;2023-08-08T12:12:20;100019.16;;;19.10;52.82
68807;BME280;55800;54.272;18.558;2023-08-08T12:14:50;100013.19;;;19.16;52.49
68807;BME280;55800;54.272;18.558;2023-08-08T12:17:43;100016.38;;;19.21;53.11
68807;BME280;55800;54.272;18.558;2023-08-08T12:20:14;100013.13;;;19.27;52.69
68807;BME280;55800;54.272;18.558;2023-08-08T12:22:44;100022.00;;;19.29;52.10
68807;BME280;55800;54.272;18.558;2023-08-08T12:25:13;100022.50;;;19.34;52.48
68807;BME280;55800;54.272;18.558;2023-08-08T12:27:44;100030.19;;;19.38;52.73
68807;BME280;55800;54.272;18.558;2023-08-08T12:30:16;100030.91;;;19.40;51.91
68807;BME280;55800;54.272;18.558;2023-08-08T12:32:45;100019.25;;;19.40;51.14
68807;BME280;55800;54.272;18.558;2023-08-08T12:35:15;100017.50;;;19.39;50.56
68807;BME280;55800;54.272;18.558;2023-08-08T12:37:45;100002.56;;;19.44;50.34
68807;BME280;55800;54.272;18.558;2023-08-08T12:40:14;100005.31;;;19.54;50.86
68807;BME280;55800;54.272;18.558;2023-08-08T12:42:45;100000.63;;;19.56;49.77
68807;BME280;55800;54.272;18.558;2023-08-08T12:45:16;100018.47;;;19.59;50.82
68807;BME280;55800;54.272;18.558;2023-08-08T12:47:46;100014.25;;;19.66;50.94
68807;BME280;55800;54.272;18.558;2023-08-08T12:50:15;100024.25;;;19.75;50.88
68807;BME280;55800;54.272;18.558;2023-08-08T12:52:45;100019.75;;;19.85;51.93
68807;BME280;55800;54.272;18.558;2023-08-08T12:55:14;100014.06;;;19.97;51.65
68807;BME280;55800;54.272;18.558;2023-08-08T12:57:47;100011.81;;;20.12;52.23
68807;BME280;55800;54.272;18.558;2023-08-08T13:00:16;100015.03;;;20.27;52.52
68807;BME280;55800;54.272;18.558;2023-08-08T13:02:46;100019.16;;;20.40;51.26
68807;BME280;55800;54.272;18.558;2023-08-08T13:05:15;100002.19;;;20.48;51.35
68807;BME280;55800;54.272;18.558;2023-08-08T13:07:45;100009.03;;;20.52;51.51
68807;BME280;55800;54.272;18.558;2023-08-08T13:10:14;100007.63;;;20.67;51.92
68807;BME280;55800;54.272;18.558;2023-08-08T13:12:44;100005.06;;;20.75;52.00
68807;BME280;55800;54.272;18.558;2023-08-08T13:15:14;100021.38;;;20.84;51.30
68807;BME280;55800;54.272;18.558;2023-08-08T13:17:45;100014.63;;;20.79;48.90
68807;BME280;55800;54.272;18.558;2023-08-08T13:20:14;100021.78;;;20.80;48.70
68807;BME280;55800;54.272;18.558;2023-08-08T13:22:44;100023.38;;;20.63;47.67
68807;BME280;55800;54.272;18.558;2023-08-08T13:25:14;100044.63;;;20.68;47.61
68807;BME280;55800;54.272;18.558;2023-08-08T13:27:43;100042.63;;;20.70;47.82
68807;BME280;55800;54.272;18.558;2023-08-08T13:30:14;100044.81;;;20.76;47.49
68807;BME280;55800;54.272;18.558;2023-08-08T13:32:44;100050.38;;;20.84;48.25
68807;BME280;55800;54.272;18.558;2023-08-08T13:35:14;100051.66;;;20.89;47.62
68807;BME280;55800;54.272;18.558;2023-08-08T13:37:43;100060.09;;;20.96;47.06
68807;BME280;55800;54.272;18.558;2023-08-08T13:40:13;100069.69;;;21.00;47.29
68807;BME280;55800;54.272;18.558;2023-08-08T13:42:46;100050.97;;;20.97;46.79
68807;BME280;55800;54.272;18.558;2023-08-08T13:45:18;100061.16;;;21.14;47.38
68807;BME280;55800;54.272;18.558;2023-08-08T13:47:48;100057.97;;;21.28;47.29
68807;BME280;55800;54.272;18.558;2023-08-08T13:50:18;100063.09;;;21.41;47.93
68807;BME280;55800;54.272;18.558;2023-08-08T13:52:47;100070.19;;;21.70;47.50
68807;BME280;55800;54.272;18.558;2023-08-08T13:55:16;100068.38;;;21.98;48.02
68807;BME280;55800;54.272;18.558;2023-08-08T13:57:46;100081.97;;;22.35;48.08
68807;BME280;55800;54.272;18.558;2023-08-08T14:00:17;100072.47;;;22.66;48.75